NSZ8531 ESSA-EKCH
Flight info
| Callsign | NSZ8531 |
|---|---|
| Flight time | 0h 59m |
| Altitude | 34000 |
| Route | PETEV N872 ERNOV |
| Aircraft | B38M/M-SDE1FGHILORVWXY/HB1 |
Departure
| Time | 2026-04-23 18:32 |
|---|---|
| Airport | Stockholm-Arlanda Airport (ESSA) |
Arrival
| Time | 2026-04-23 19:32 |
|---|---|
| Airport | Copenhagen Kastrup Airport (EKCH) |
| Time | Latitude | Longitude | Altitude | Speed | Heading |
|---|---|---|---|---|---|
| 2026-04-23 17:58 | 59.65433 | 17.93507 | 140 ft | 0 kts | 74° |
| 2026-04-23 18:15 | 59.65430 | 17.93480 | 140 ft | 4 kts | 74° |
| 2026-04-23 18:15 | 59.65422 | 17.93429 | 140 ft | 4 kts | 75° |
| 2026-04-23 18:15 | 59.65414 | 17.93386 | 140 ft | 4 kts | 47° |
| 2026-04-23 18:15 | 59.65394 | 17.93370 | 140 ft | 4 kts | 352° |
| 2026-04-23 18:16 | 59.65378 | 17.93376 | 140 ft | 1 kts | 346° |
| 2026-04-23 18:16 | 59.65376 | 17.93377 | 140 ft | 0 kts | 346° |
| 2026-04-23 18:29 | 59.65381 | 17.93375 | 140 ft | 3 kts | 346° |
| 2026-04-23 18:30 | 59.65431 | 17.93351 | 140 ft | 13 kts | 346° |
| 2026-04-23 18:30 | 59.65533 | 17.93328 | 140 ft | 13 kts | 348° |
| 2026-04-23 18:30 | 59.65630 | 17.93318 | 140 ft | 14 kts | 24° |
| 2026-04-23 18:30 | 59.65704 | 17.93456 | 140 ft | 16 kts | 45° |
| 2026-04-23 18:31 | 59.65790 | 17.93625 | 140 ft | 19 kts | 41° |
| 2026-04-23 18:31 | 59.65871 | 17.93848 | 140 ft | 22 kts | 78° |
| 2026-04-23 18:31 | 59.65930 | 17.94302 | 142 ft | 65 kts | 76° |
| 2026-04-23 18:31 | 59.66106 | 17.95685 | 141 ft | 139 kts | 76° |
| 2026-04-23 18:32 | 59.66358 | 17.97818 | 456 ft | 167 kts | 78° |
| 2026-04-23 18:32 | 59.66616 | 18.00161 | 1144 ft | 177 kts | 70° |
| 2026-04-23 18:32 | 59.66989 | 18.02576 | 1875 ft | 196 kts | 66° |
| 2026-04-23 18:32 | 59.67511 | 18.05185 | 2694 ft | 208 kts | 54° |
| 2026-04-23 18:33 | 59.68475 | 18.07166 | 3820 ft | 197 kts | 18° |
| 2026-04-23 18:33 | 59.69789 | 18.07224 | 4857 ft | 190 kts | 332° |
| 2026-04-23 18:33 | 59.70772 | 18.05571 | 5944 ft | 192 kts | 307° |
| 2026-04-23 18:33 | 59.71319 | 18.03098 | 6966 ft | 203 kts | 284° |
| 2026-04-23 18:34 | 59.71185 | 18.00256 | 7867 ft | 219 kts | 257° |
| 2026-04-23 18:34 | 59.70497 | 17.97541 | 8874 ft | 227 kts | 245° |
| 2026-04-23 18:34 | 59.69676 | 17.94759 | 9613 ft | 237 kts | 247° |
| 2026-04-23 18:34 | 59.68834 | 17.91787 | 10258 ft | 253 kts | 247° |
| 2026-04-23 18:35 | 59.67954 | 17.88609 | 10808 ft | 273 kts | 247° |
| 2026-04-23 18:35 | 59.67014 | 17.85192 | 11344 ft | 294 kts | 247° |
| 2026-04-23 18:35 | 59.66021 | 17.81559 | 11829 ft | 314 kts | 247° |
| 2026-04-23 18:35 | 59.64950 | 17.77669 | 12508 ft | 330 kts | 244° |
| 2026-04-23 18:36 | 59.63386 | 17.74095 | 13263 ft | 351 kts | 222° |
| 2026-04-23 18:36 | 59.61417 | 17.71197 | 14078 ft | 355 kts | 226° |
| 2026-04-23 18:36 | 59.59588 | 17.67876 | 14815 ft | 360 kts | 228° |
| 2026-04-23 18:36 | 59.57713 | 17.64526 | 15549 ft | 366 kts | 227° |
| 2026-04-23 18:37 | 59.55802 | 17.61157 | 16265 ft | 372 kts | 227° |
| 2026-04-23 18:37 | 59.53850 | 17.57753 | 17004 ft | 377 kts | 226° |
| 2026-04-23 18:37 | 59.51868 | 17.54317 | 17676 ft | 384 kts | 226° |
| 2026-04-23 18:37 | 59.49843 | 17.50820 | 17912 ft | 388 kts | 226° |
| 2026-04-23 18:38 | 59.47836 | 17.47362 | 17965 ft | 388 kts | 226° |
| 2026-04-23 18:38 | 59.45803 | 17.43867 | 17971 ft | 388 kts | 226° |
| 2026-04-23 18:38 | 59.43773 | 17.40383 | 17967 ft | 388 kts | 226° |
| 2026-04-23 18:38 | 59.41739 | 17.36899 | 17968 ft | 388 kts | 226° |
| 2026-04-23 18:39 | 59.39704 | 17.33418 | 17970 ft | 388 kts | 226° |
| 2026-04-23 18:39 | 59.37668 | 17.29941 | 17966 ft | 388 kts | 226° |
| 2026-04-23 18:39 | 59.35627 | 17.26461 | 18181 ft | 390 kts | 226° |
| 2026-04-23 18:39 | 59.33576 | 17.22968 | 18855 ft | 392 kts | 226° |
| 2026-04-23 18:40 | 59.31502 | 17.19444 | 19468 ft | 396 kts | 226° |
| 2026-04-23 18:40 | 59.29412 | 17.15898 | 20101 ft | 400 kts | 226° |
| 2026-04-23 18:40 | 59.27300 | 17.12321 | 20725 ft | 403 kts | 226° |
| 2026-04-23 18:40 | 59.25167 | 17.08716 | 21319 ft | 407 kts | 226° |
| 2026-04-23 18:41 | 59.23018 | 17.05087 | 21920 ft | 411 kts | 226° |
| 2026-04-23 18:41 | 59.20837 | 17.01437 | 22512 ft | 415 kts | 225° |
| 2026-04-23 18:41 | 59.18611 | 16.97818 | 23106 ft | 418 kts | 225° |
| 2026-04-23 18:41 | 59.16363 | 16.94159 | 23667 ft | 422 kts | 225° |
| 2026-04-23 18:42 | 59.14101 | 16.90480 | 24137 ft | 425 kts | 225° |
| 2026-04-23 18:42 | 59.11825 | 16.86783 | 24649 ft | 427 kts | 225° |
| 2026-04-23 18:42 | 59.09532 | 16.83067 | 25101 ft | 430 kts | 225° |
| 2026-04-23 18:42 | 59.07229 | 16.79344 | 25665 ft | 430 kts | 225° |
| 2026-04-23 18:43 | 59.04932 | 16.75631 | 26195 ft | 431 kts | 225° |
| 2026-04-23 18:43 | 59.02618 | 16.71900 | 26647 ft | 434 kts | 225° |
| 2026-04-23 18:43 | 59.00287 | 16.68147 | 27110 ft | 436 kts | 225° |
| 2026-04-23 18:43 | 58.97943 | 16.64382 | 27570 ft | 438 kts | 224° |
| 2026-04-23 18:44 | 58.95587 | 16.60603 | 28021 ft | 441 kts | 224° |
| 2026-04-23 18:44 | 58.93221 | 16.56816 | 28475 ft | 443 kts | 224° |
| 2026-04-23 18:44 | 58.90833 | 16.53000 | 28899 ft | 445 kts | 224° |
| 2026-04-23 18:44 | 58.88440 | 16.49190 | 29322 ft | 448 kts | 224° |
| 2026-04-23 18:45 | 58.86028 | 16.45355 | 29737 ft | 450 kts | 224° |
| 2026-04-23 18:45 | 58.83602 | 16.41505 | 30108 ft | 452 kts | 224° |
| 2026-04-23 18:45 | 58.81162 | 16.37641 | 30445 ft | 455 kts | 224° |
| 2026-04-23 18:45 | 58.78708 | 16.33759 | 30779 ft | 457 kts | 224° |
| 2026-04-23 18:46 | 58.76239 | 16.29863 | 31108 ft | 460 kts | 224° |
| 2026-04-23 18:46 | 58.73759 | 16.25956 | 31414 ft | 463 kts | 224° |
| 2026-04-23 18:46 | 58.71260 | 16.22028 | 31733 ft | 465 kts | 225° |
| 2026-04-23 18:46 | 58.68748 | 16.18086 | 32040 ft | 467 kts | 225° |
| 2026-04-23 18:47 | 58.67074 | 16.15465 | 32256 ft | 469 kts | 225° |
| 2026-04-23 18:47 | 58.64549 | 16.11517 | 32649 ft | 468 kts | 225° |
| 2026-04-23 18:47 | 58.62022 | 16.07572 | 33059 ft | 468 kts | 225° |
| 2026-04-23 18:47 | 58.59493 | 16.03631 | 33446 ft | 468 kts | 225° |
| 2026-04-23 18:48 | 58.56963 | 15.99699 | 33842 ft | 468 kts | 225° |
| 2026-04-23 18:48 | 58.54427 | 15.95762 | 34029 ft | 470 kts | 225° |
| 2026-04-23 18:48 | 58.51893 | 15.91839 | 34037 ft | 467 kts | 225° |
| 2026-04-23 18:49 | 58.46849 | 15.84048 | 34021 ft | 466 kts | 225° |
| 2026-04-23 18:49 | 58.41795 | 15.76268 | 34022 ft | 466 kts | 225° |
| 2026-04-23 18:50 | 58.37594 | 15.69828 | 33983 ft | 466 kts | 225° |
| 2026-04-23 18:50 | 58.31706 | 15.60831 | 34044 ft | 463 kts | 224° |
| 2026-04-23 18:51 | 58.26675 | 15.53176 | 34052 ft | 463 kts | 224° |
| 2026-04-23 18:51 | 58.21641 | 15.45543 | 34060 ft | 463 kts | 224° |
| 2026-04-23 18:52 | 58.16606 | 15.37937 | 34055 ft | 463 kts | 224° |
| 2026-04-23 18:52 | 58.11559 | 15.30342 | 34066 ft | 463 kts | 224° |
| 2026-04-23 18:53 | 58.06510 | 15.22776 | 34060 ft | 463 kts | 224° |
| 2026-04-23 18:53 | 58.01457 | 15.15232 | 34062 ft | 463 kts | 224° |
| 2026-04-23 18:54 | 57.96397 | 15.07706 | 34060 ft | 463 kts | 224° |
| 2026-04-23 18:54 | 57.91337 | 15.00208 | 34081 ft | 463 kts | 224° |
| 2026-04-23 18:55 | 57.86279 | 14.92739 | 34070 ft | 463 kts | 224° |
| 2026-04-23 18:55 | 57.81207 | 14.85278 | 34070 ft | 463 kts | 223° |
| 2026-04-23 18:56 | 57.76987 | 14.79091 | 34073 ft | 463 kts | 223° |
| 2026-04-23 18:56 | 57.71086 | 14.70470 | 34086 ft | 463 kts | 223° |
| 2026-04-23 18:57 | 57.66005 | 14.63078 | 34030 ft | 462 kts | 223° |
| 2026-04-23 18:57 | 57.60948 | 14.55745 | 34071 ft | 459 kts | 223° |
| 2026-04-23 18:58 | 57.55903 | 14.48457 | 34078 ft | 459 kts | 223° |
| 2026-04-23 18:58 | 57.50850 | 14.41184 | 34070 ft | 459 kts | 223° |
| 2026-04-23 18:59 | 57.45797 | 14.33938 | 34060 ft | 454 kts | 223° |
| 2026-04-23 18:59 | 57.43354 | 14.30451 | 33948 ft | 435 kts | 223° |
| 2026-04-23 18:59 | 57.40972 | 14.27046 | 33549 ft | 430 kts | 223° |
| 2026-04-23 18:59 | 57.38606 | 14.23671 | 32915 ft | 431 kts | 223° |
| 2026-04-23 19:00 | 57.36218 | 14.20272 | 32240 ft | 434 kts | 223° |
| 2026-04-23 19:00 | 57.33825 | 14.16873 | 31716 ft | 433 kts | 222° |
| 2026-04-23 19:00 | 57.31446 | 14.13499 | 31312 ft | 429 kts | 222° |
| 2026-04-23 19:00 | 57.29095 | 14.10170 | 30924 ft | 425 kts | 222° |
| 2026-04-23 19:01 | 57.26748 | 14.06853 | 30478 ft | 423 kts | 222° |
| 2026-04-23 19:01 | 57.24414 | 14.03557 | 30037 ft | 422 kts | 221° |
| 2026-04-23 19:01 | 57.22084 | 14.00270 | 29525 ft | 421 kts | 221° |
| 2026-04-23 19:01 | 57.19765 | 13.97005 | 29072 ft | 418 kts | 221° |
| 2026-04-23 19:02 | 57.17463 | 13.93769 | 28646 ft | 414 kts | 222° |
| 2026-04-23 19:02 | 57.15175 | 13.90566 | 28176 ft | 412 kts | 222° |
| 2026-04-23 19:02 | 57.12900 | 13.87383 | 27712 ft | 411 kts | 222° |
| 2026-04-23 19:02 | 57.10637 | 13.84221 | 27359 ft | 406 kts | 222° |
| 2026-04-23 19:03 | 57.08387 | 13.81080 | 26966 ft | 404 kts | 222° |
| 2026-04-23 19:03 | 57.06156 | 13.77971 | 26571 ft | 402 kts | 222° |
| 2026-04-23 19:03 | 57.03937 | 13.74884 | 26172 ft | 400 kts | 222° |
| 2026-04-23 19:03 | 57.01724 | 13.71809 | 25780 ft | 398 kts | 222° |
| 2026-04-23 19:04 | 56.99521 | 13.68753 | 25384 ft | 396 kts | 222° |
| 2026-04-23 19:04 | 56.97328 | 13.65716 | 25004 ft | 394 kts | 222° |
| 2026-04-23 19:04 | 56.95148 | 13.62702 | 24601 ft | 393 kts | 221° |
| 2026-04-23 19:04 | 56.92973 | 13.59699 | 24237 ft | 390 kts | 222° |
| 2026-04-23 19:05 | 56.90808 | 13.56714 | 23868 ft | 389 kts | 222° |
| 2026-04-23 19:05 | 56.88653 | 13.53746 | 23463 ft | 387 kts | 222° |
| 2026-04-23 19:05 | 56.86502 | 13.50790 | 23055 ft | 385 kts | 222° |
| 2026-04-23 19:05 | 56.84369 | 13.47862 | 22683 ft | 382 kts | 222° |
| 2026-04-23 19:06 | 56.82252 | 13.44959 | 22316 ft | 379 kts | 222° |
| 2026-04-23 19:06 | 56.80152 | 13.42085 | 21963 ft | 376 kts | 222° |
| 2026-04-23 19:06 | 56.78067 | 13.39235 | 21606 ft | 373 kts | 222° |
| 2026-04-23 19:06 | 56.75993 | 13.36404 | 21254 ft | 371 kts | 222° |
| 2026-04-23 19:07 | 56.73963 | 13.33635 | 20902 ft | 368 kts | 222° |
| 2026-04-23 19:07 | 56.71913 | 13.30847 | 20516 ft | 367 kts | 222° |
| 2026-04-23 19:07 | 56.69871 | 13.28073 | 20149 ft | 365 kts | 222° |
| 2026-04-23 19:07 | 56.67838 | 13.25314 | 19820 ft | 363 kts | 222° |
| 2026-04-23 19:08 | 56.65821 | 13.22582 | 19469 ft | 361 kts | 222° |
| 2026-04-23 19:08 | 56.63810 | 13.19859 | 19089 ft | 360 kts | 222° |
| 2026-04-23 19:08 | 56.61802 | 13.17145 | 18748 ft | 359 kts | 222° |
| 2026-04-23 19:08 | 56.59808 | 13.14454 | 18417 ft | 355 kts | 222° |
| 2026-04-23 19:09 | 56.57832 | 13.11790 | 18021 ft | 353 kts | 222° |
| 2026-04-23 19:09 | 56.55863 | 13.09139 | 17668 ft | 351 kts | 222° |
| 2026-04-23 19:09 | 56.53914 | 13.06518 | 17327 ft | 348 kts | 222° |
| 2026-04-23 19:09 | 56.51976 | 13.03916 | 16992 ft | 345 kts | 222° |
| 2026-04-23 19:10 | 56.50049 | 13.01333 | 16673 ft | 343 kts | 222° |
| 2026-04-23 19:10 | 56.48139 | 12.98776 | 16359 ft | 340 kts | 222° |
| 2026-04-23 19:10 | 56.46243 | 12.96240 | 16031 ft | 338 kts | 222° |
| 2026-04-23 19:10 | 56.44355 | 12.93718 | 15704 ft | 336 kts | 222° |
| 2026-04-23 19:11 | 56.42481 | 12.91219 | 15373 ft | 334 kts | 221° |
| 2026-04-23 19:11 | 56.40615 | 12.88732 | 15051 ft | 332 kts | 221° |
| 2026-04-23 19:11 | 56.38764 | 12.86271 | 14747 ft | 330 kts | 221° |
| 2026-04-23 19:11 | 56.36916 | 12.83814 | 14426 ft | 329 kts | 221° |
| 2026-04-23 19:12 | 56.35699 | 12.82198 | 14212 ft | 328 kts | 221° |
| 2026-04-23 19:12 | 56.33253 | 12.78953 | 13773 ft | 326 kts | 221° |
| 2026-04-23 19:12 | 56.31431 | 12.76540 | 13419 ft | 324 kts | 221° |
| 2026-04-23 19:12 | 56.29622 | 12.74146 | 13094 ft | 322 kts | 221° |
| 2026-04-23 19:13 | 56.27822 | 12.71768 | 12787 ft | 319 kts | 221° |
| 2026-04-23 19:13 | 56.26038 | 12.69414 | 12469 ft | 317 kts | 221° |
| 2026-04-23 19:13 | 56.24269 | 12.67084 | 12164 ft | 314 kts | 221° |
| 2026-04-23 19:13 | 56.22511 | 12.64770 | 11866 ft | 312 kts | 221° |
| 2026-04-23 19:14 | 56.20770 | 12.62479 | 11573 ft | 309 kts | 221° |
| 2026-04-23 19:14 | 56.19040 | 12.60205 | 11265 ft | 307 kts | 221° |
| 2026-04-23 19:14 | 56.17232 | 12.58195 | 10986 ft | 310 kts | 205° |
| 2026-04-23 19:14 | 56.15136 | 12.57508 | 10756 ft | 314 kts | 182° |
| 2026-04-23 19:15 | 56.12907 | 12.57500 | 10574 ft | 318 kts | 182° |
| 2026-04-23 19:15 | 56.10722 | 12.57483 | 10374 ft | 318 kts | 182° |
| 2026-04-23 19:15 | 56.08518 | 12.57484 | 10150 ft | 315 kts | 182° |
| 2026-04-23 19:15 | 56.06338 | 12.57494 | 9911 ft | 311 kts | 182° |
| 2026-04-23 19:16 | 56.04188 | 12.57512 | 9675 ft | 307 kts | 182° |
| 2026-04-23 19:16 | 56.02054 | 12.57531 | 9472 ft | 307 kts | 181° |
| 2026-04-23 19:16 | 55.99922 | 12.57551 | 9233 ft | 306 kts | 181° |
| 2026-04-23 19:17 | 55.95681 | 12.57593 | 8827 ft | 301 kts | 181° |
| 2026-04-23 19:17 | 55.93631 | 12.57614 | 8691 ft | 288 kts | 181° |
| 2026-04-23 19:17 | 55.91657 | 12.57634 | 8394 ft | 280 kts | 182° |
| 2026-04-23 19:17 | 55.89723 | 12.57652 | 8178 ft | 275 kts | 182° |
| 2026-04-23 19:18 | 55.87808 | 12.57658 | 7880 ft | 274 kts | 185° |
| 2026-04-23 19:18 | 55.85989 | 12.56970 | 7607 ft | 265 kts | 204° |
| 2026-04-23 19:18 | 55.84268 | 12.55836 | 7317 ft | 266 kts | 204° |
| 2026-04-23 19:18 | 55.82544 | 12.54710 | 7071 ft | 263 kts | 204° |
| 2026-04-23 19:19 | 55.79106 | 12.52478 | 6370 ft | 265 kts | 203° |
| 2026-04-23 19:19 | 55.77368 | 12.51352 | 5838 ft | 266 kts | 204° |
| 2026-04-23 19:20 | 55.73885 | 12.49104 | 4841 ft | 266 kts | 203° |
| 2026-04-23 19:20 | 55.72145 | 12.47982 | 4324 ft | 266 kts | 203° |
| 2026-04-23 19:20 | 55.70417 | 12.46870 | 3892 ft | 262 kts | 203° |
| 2026-04-23 19:20 | 55.68750 | 12.45799 | 3733 ft | 246 kts | 203° |
| 2026-04-23 19:21 | 55.67168 | 12.44783 | 3617 ft | 241 kts | 203° |
| 2026-04-23 19:21 | 55.64058 | 12.42784 | 3177 ft | 236 kts | 203° |
| 2026-04-23 19:21 | 55.62514 | 12.41794 | 3016 ft | 235 kts | 203° |
| 2026-04-23 19:22 | 55.60981 | 12.40811 | 2961 ft | 234 kts | 203° |
| 2026-04-23 19:22 | 55.59576 | 12.39434 | 2960 ft | 229 kts | 223° |
| 2026-04-23 19:22 | 55.57234 | 12.35880 | 2983 ft | 216 kts | 225° |
| 2026-04-23 19:23 | 55.56099 | 12.34142 | 2972 ft | 217 kts | 224° |
| 2026-04-23 19:23 | 55.54957 | 12.32393 | 2977 ft | 218 kts | 224° |
| 2026-04-23 19:23 | 55.53810 | 12.30646 | 2994 ft | 218 kts | 223° |
| 2026-04-23 19:24 | 55.51489 | 12.27190 | 2984 ft | 218 kts | 224° |
| 2026-04-23 19:24 | 55.50337 | 12.25445 | 2991 ft | 218 kts | 224° |
| 2026-04-23 19:24 | 55.47828 | 12.22565 | 2965 ft | 213 kts | 189° |
| 2026-04-23 19:25 | 55.45545 | 12.24535 | 2980 ft | 183 kts | 125° |
| 2026-04-23 19:25 | 55.44211 | 12.28298 | 2971 ft | 178 kts | 94° |
| 2026-04-23 19:26 | 55.44518 | 12.32551 | 2868 ft | 179 kts | 75° |
| 2026-04-23 19:26 | 55.44748 | 12.34694 | 2652 ft | 179 kts | 75° |
| 2026-04-23 19:27 | 55.45441 | 12.38818 | 2019 ft | 170 kts | 51° |
| 2026-04-23 19:27 | 55.47969 | 12.43021 | 1989 ft | 168 kts | 36° |
| 2026-04-23 19:28 | 55.49841 | 12.45895 | 2016 ft | 184 kts | 37° |
| 2026-04-23 19:28 | 55.51779 | 12.48877 | 1902 ft | 186 kts | 37° |
| 2026-04-23 19:29 | 55.52745 | 12.50365 | 1699 ft | 183 kts | 37° |
| 2026-04-23 19:29 | 55.54495 | 12.53064 | 1259 ft | 151 kts | 37° |
| 2026-04-23 19:30 | 55.56060 | 12.55474 | 837 ft | 148 kts | 38° |
| 2026-04-23 19:30 | 55.56833 | 12.56647 | 622 ft | 148 kts | 39° |
| 2026-04-23 19:30 | 55.58438 | 12.59147 | 249 ft | 151 kts | 41° |
| 2026-04-23 19:31 | 55.59233 | 12.60372 | 59 ft | 155 kts | 40° |
| 2026-04-23 19:31 | 55.60001 | 12.61560 | 22 ft | 128 kts | 41° |
| 2026-04-23 19:31 | 55.60489 | 12.62317 | 22 ft | 65 kts | 41° |
| 2026-04-23 19:31 | 55.60787 | 12.62756 | 24 ft | 50 kts | 30° |
| 2026-04-23 19:32 | 55.60991 | 12.62873 | 20 ft | 37 kts | 12° |
| 2026-04-23 19:32 | 55.61069 | 12.62902 | 20 ft | 0 kts | 17° |
| 2026-04-23 19:33 | 55.61183 | 12.63009 | 20 ft | 24 kts | 43° |
| 2026-04-23 19:34 | 55.61319 | 12.63220 | 20 ft | 27 kts | 41° |
| 2026-04-23 19:34 | 55.61467 | 12.63450 | 20 ft | 29 kts | 41° |
| 2026-04-23 19:34 | 55.61740 | 12.63873 | 20 ft | 18 kts | 41° |
| 2026-04-23 19:35 | 55.61764 | 12.63910 | 20 ft | 2 kts | 41° |
| 2026-04-23 19:35 | 55.61796 | 12.63959 | 20 ft | 14 kts | 41° |
| 2026-04-23 19:35 | 55.61912 | 12.64108 | 20 ft | 24 kts | 26° |
| 2026-04-23 19:35 | 55.62074 | 12.64242 | 21 ft | 27 kts | 26° |
| 2026-04-23 19:36 | 55.62225 | 12.64367 | 19 ft | 16 kts | 24° |
| 2026-04-23 19:36 | 55.62334 | 12.64423 | 21 ft | 18 kts | 15° |
| 2026-04-23 19:36 | 55.62437 | 12.64428 | 19 ft | 8 kts | 302° |
| 2026-04-23 19:36 | 55.62495 | 12.64271 | 19 ft | 22 kts | 304° |
| 2026-04-23 19:37 | 55.62585 | 12.64204 | 19 ft | 11 kts | 340° |
| 2026-04-23 19:37 | 55.62635 | 12.64100 | 19 ft | 13 kts | 303° |
| 2026-04-23 19:37 | 55.62672 | 12.64044 | 20 ft | 1 kts | 16° |
| 2026-04-23 19:37 | 55.62685 | 12.64059 | 20 ft | 6 kts | 31° |
| 2026-04-23 19:38 | 55.62712 | 12.64088 | 21 ft | 4 kts | 32° |
| 2026-04-23 19:38 | 55.62719 | 12.64096 | 22 ft | 0 kts | 33° |